Time;durP1;ratioP1;P1;durP2;ratioP2;P2;SDS_P1;SDS_P2;PMS_P1;PMS_P2;Temp;Humidity;BMP_temperature;BMP_pressure;BME280_temperature;BME280_humidity;BME280_pressure;Samples;Min_cycle;Max_cycle;Signal;HPM_P1;HPM_P2
2022/05/05 00:01:40;;;;;;;1.57;1.40;;;;;;;19.59;51.51;97579.84;4926558;29;20197;-93
2022/05/05 00:04:08;;;;;;;1.93;1.50;;;;;;;13.25;50.56;96554.38;4911831;29;20198;-94
2022/05/05 00:06:41;;;;;;;1.90;1.53;;;;;;;16.09;51.10;97010.53;4898425;29;20170;-95
2022/05/05 00:09:22;;;;;;;1.60;1.50;;;;;;;14.74;51.27;96740.50;4900361;29;20177;-95
2022/05/05 00:14:51;;;;;;;1.40;1.30;;;;;;;14.11;51.47;96635.75;4939334;23;20226;-95
2022/05/05 00:17:31;;;;;;;1.73;1.40;;;;;;;16.82;51.47;97194.63;4880090;29;20175;-95
2022/05/05 00:19:59;;;;;;;1.40;1.30;;;;;;;13.74;51.30;96603.78;4878492;29;20171;-94
2022/05/05 00:25:10;;;;;;;1.77;1.40;;;;;;;15.58;51.39;96907.00;5108935;23;20205;-95
2022/05/05 00:30:13;;;;;;;1.70;1.60;;;;;;;18.23;51.08;97383.47;5022862;23;20228;-94
2022/05/05 00:32:41;;;;;;;1.43;1.33;;;;;;;14.95;51.16;96804.63;4913320;29;20245;-94
2022/05/05 00:35:09;;;;;;;1.53;1.43;;;;;;;16.06;52.14;96974.06;4943724;23;20221;-95
2022/05/05 00:37:36;;;;;;;1.60;1.50;;;;;;;16.14;51.50;96991.31;4893146;29;20207;-95
2022/05/05 00:40:16;;;;;;;1.60;1.50;;;;;;;16.00;51.46;96973.81;4880959;29;20172;-94
2022/05/05 00:48:06;;;;;;;1.53;1.43;;;;;;;14.55;51.06;96761.56;4129071;27;20197;-94
2022/05/05 00:50:38;;;;;;;2.07;1.50;;;;;;;15.91;51.71;96975.94;5065618;23;20242;-94
2022/05/05 00:53:25;;;;;;;1.50;1.40;;;;;;;15.49;51.56;96911.69;4918388;29;20248;-94
2022/05/05 00:56:10;;;;;;;1.77;1.40;;;;;;;12.38;51.56;96398.22;4882821;29;20209;-94
2022/05/05 00:58:52;;;;;;;1.60;1.50;;;;;;;16.01;51.24;96951.06;4850810;29;20218;-95
2022/05/05 01:01:33;;;;;;;1.67;1.57;;;;;;;15.11;50.37;96838.25;4880723;29;20177;-95
2022/05/05 01:04:16;;;;;;;1.50;1.40;;;;;;;14.26;51.98;96736.66;5233892;23;20218;-94
2022/05/05 01:07:02;;;;;;;1.60;1.50;;;;;;;14.49;50.96;96747.00;4867218;29;20169;-95
2022/05/05 01:09:29;;;;;;;1.60;1.50;;;;;;;14.65;51.81;96751.03;4861966;29;20179;-94
2022/05/05 01:11:56;;;;;;;1.50;1.40;;;;;;;18.00;51.78;97307.09;4861604;29;20176;-95
2022/05/05 01:14:42;;;;;;;1.40;1.30;;;;;;;16.96;51.38;97215.50;4866936;29;20221;-94
2022/05/05 01:17:22;;;;;;;2.13;1.60;;;;;;;15.02;51.56;96802.44;4894020;29;20179;-94
2022/05/05 01:20:17;;;;;;;1.60;1.50;;;;;;;13.68;51.57;96596.75;4865493;29;20204;-94
2022/05/05 01:22:46;;;;;;;1.43;1.33;;;;;;;14.54;51.15;96749.75;4876783;29;20172;-94
2022/05/05 01:28:26;;;;;;;1.60;1.40;;;;;;;14.84;52.14;96756.13;4891505;29;20203;-95
2022/05/05 01:31:02;;;;;;;1.57;1.47;;;;;;;14.60;50.87;96767.69;4870331;29;20199;-94
2022/05/05 01:33:43;;;;;;;1.30;1.30;;;;;;;15.95;51.20;96947.41;4866123;29;20191;-94
2022/05/05 01:36:38;;;;;;;1.60;1.50;;;;;;;12.94;51.71;96507.56;4866944;29;20171;-93
2022/05/05 01:39:16;;;;;;;1.33;1.23;;;;;;;15.43;51.45;96878.50;4865400;29;20182;-95
2022/05/05 01:42:00;;;;;;;1.57;1.47;;;;;;;13.92;50.36;96662.66;4878259;29;20202;-95
2022/05/05 01:44:27;;;;;;;1.30;1.30;;;;;;;16.04;51.49;96955.38;4860994;29;20198;-94
2022/05/05 01:47:13;;;;;;;1.70;1.43;;;;;;;16.08;52.03;96969.94;4880004;29;20167;-93
2022/05/05 01:49:46;;;;;;;1.60;1.50;;;;;;;18.40;51.33;97411.28;4862591;29;20163;-95
2022/05/05 01:52:16;;;;;;;1.40;1.30;;;;;;;15.43;52.06;96913.06;4863237;29;20168;-94
2022/05/05 01:54:43;;;;;;;1.50;1.40;;;;;;;14.81;51.23;96750.06;4876011;29;20203;-94
2022/05/05 01:57:16;;;;;;;1.97;1.60;;;;;;;15.90;51.33;96971.69;4861041;29;20177;-94
2022/05/05 01:59:57;;;;;;;1.43;1.33;;;;;;;16.10;51.81;96999.59;4866246;29;20175;-94
2022/05/05 02:02:23;;;;;;;1.20;1.20;;;;;;;15.69;51.68;96960.66;4860894;29;20175;-95
2022/05/05 02:04:57;;;;;;;1.60;1.50;;;;;;;13.07;51.56;96485.44;4860674;29;20176;-93
2022/05/05 02:07:41;;;;;;;2.90;1.40;;;;;;;15.35;51.30;96844.38;4866631;29;20166;-94
2022/05/05 02:10:41;;;;;;;1.57;1.47;;;;;;;19.51;51.66;97551.50;4879204;29;20171;-95
2022/05/05 02:13:22;;;;;;;1.60;1.50;;;;;;;13.81;51.94;96565.34;4879727;29;20207;-95
2022/05/05 02:15:53;;;;;;;1.33;1.30;;;;;;;13.82;50.87;96625.16;4861525;29;20199;-94
2022/05/05 02:18:34;;;;;;;1.50;1.40;;;;;;;16.03;52.00;97011.94;4862050;29;20180;-94
2022/05/05 02:21:16;;;;;;;1.60;1.50;;;;;;;16.93;51.58;97112.16;4864718;29;20301;-94
2022/05/05 02:23:58;;;;;;;1.70;1.60;;;;;;;15.53;52.06;96918.59;5021307;24;20213;-95
2022/05/05 02:26:33;;;;;;;1.40;1.30;;;;;;;14.58;51.35;96729.72;4899190;29;20181;-94
2022/05/05 02:29:02;;;;;;;1.60;1.50;;;;;;;16.13;52.05;97044.47;4913501;29;20237;-95
2022/05/05 02:31:35;;;;;;;1.23;1.20;;;;;;;13.75;51.53;96557.53;4913276;29;20206;-94
2022/05/05 02:34:21;;;;;;;1.50;1.40;;;;;;;14.91;51.53;96764.81;4903267;29;20189;-94
2022/05/05 02:39:58;;;;;;;1.63;1.53;;;;;;;19.48;52.04;97655.91;4916831;29;20170;-94
2022/05/05 02:42:29;;;;;;;1.57;1.40;;;;;;;13.73;51.61;96591.91;4913065;29;20178;-93
2022/05/05 02:44:58;;;;;;;2.50;1.40;;;;;;;18.37;51.31;97427.28;4913003;29;20166;-94
2022/05/05 02:47:39;;;;;;;1.50;1.40;;;;;;;14.92;51.58;96807.88;4915753;29;20173;-94
2022/05/05 02:50:09;;;;;;;1.53;1.43;;;;;;;17.71;51.57;97310.13;4913243;29;20174;-93
2022/05/05 02:52:36;;;;;;;1.50;1.40;;;;;;;14.51;51.24;96704.09;4927732;29;20169;-94
2022/05/05 02:55:16;;;;;;;1.70;1.40;;;;;;;15.23;50.82;96883.47;4901836;29;20166;-94
2022/05/05 02:57:57;;;;;;;1.30;1.20;;;;;;;14.52;51.55;96696.59;4891634;29;20168;-95
2022/05/05 03:00:59;;;;;;;1.50;1.40;;;;;;;15.57;51.65;96881.63;4897421;29;20175;-94
2022/05/05 03:03:42;;;;;;;1.37;1.27;;;;;;;13.41;51.54;96514.78;4902569;29;20179;-94
2022/05/05 03:06:15;;;;;;;1.40;1.30;;;;;;;15.46;52.88;96934.34;4889722;29;20198;-94
2022/05/05 03:09:15;;;;;;;1.50;1.40;;;;;;;19.52;51.61;97572.78;4903507;29;20172;-95
2022/05/05 03:11:58;;;;;;;1.50;1.40;;;;;;;15.56;51.28;96926.31;4904319;29;20244;-95
2022/05/05 03:14:26;;;;;;;1.63;1.40;;;;;;;16.03;52.06;96992.56;4919977;29;20262;-94
2022/05/05 03:17:06;;;;;;;1.20;1.20;;;;;;;16.00;51.40;96973.81;4890860;29;20171;-94
2022/05/05 03:19:36;;;;;;;1.20;1.20;;;;;;;13.64;50.97;96634.41;4889812;29;20213;-94
2022/05/05 03:22:06;;;;;;;1.40;1.30;;;;;;;14.89;51.58;96843.16;4918257;29;20197;-94
2022/05/05 03:24:33;;;;;;;1.30;1.30;;;;;;;13.67;51.38;96624.47;4875065;29;20230;-93
2022/05/05 03:51:20;;;;;;;1.43;1.30;;;;;;;15.82;52.17;97027.09;4223321;23;20212;-95
2022/05/05 03:54:00;;;;;;;1.40;1.30;;;;;;;13.73;51.40;96655.91;4932856;29;20185;-94
2022/05/05 03:56:44;;;;;;;1.37;1.30;;;;;;;15.64;52.08;96977.31;4917992;29;20191;-94
2022/05/05 03:59:25;;;;;;;1.20;1.20;;;;;;;15.75;51.53;97083.34;4920121;29;20169;-94
2022/05/05 04:02:05;;;;;;;2.07;1.47;;;;;;;14.26;51.54;96747.63;4932980;29;20164;-93
2022/05/05 04:04:38;;;;;;;1.20;1.20;;;;;;;15.68;51.87;97005.38;4945940;29;20280;-94
2022/05/05 04:07:24;;;;;;;1.50;1.40;;;;;;;15.29;51.86;96906.50;4941529;29;20232;-94
2022/05/05 04:09:53;;;;;;;1.20;1.20;;;;;;;15.57;51.74;96947.47;4933604;29;20239;-94
2022/05/05 04:12:35;;;;;;;1.40;1.30;;;;;;;16.67;51.05;97137.28;4951166;29;20168;-95
2022/05/05 04:15:07;;;;;;;1.33;1.27;;;;;;;16.03;51.88;97044.88;4935010;29;20208;-94
2022/05/05 04:17:33;;;;;;;1.50;1.40;;;;;;;14.89;51.62;96832.19;4933365;29;20200;-95
2022/05/05 04:20:06;;;;;;;1.30;1.30;;;;;;;15.25;51.53;96915.63;4934345;29;20171;-93
2022/05/05 04:22:36;;;;;;;1.40;1.30;;;;;;;13.26;51.84;96577.16;4934115;29;20169;-95
2022/05/05 04:25:06;;;;;;;1.10;1.10;;;;;;;16.58;51.54;97119.13;4949387;29;20172;-93
2022/05/05 04:27:47;;;;;;;1.40;1.30;;;;;;;15.67;51.37;97000.22;4952718;29;20235;-94
2022/05/05 04:30:17;;;;;;;1.30;1.30;;;;;;;15.50;51.43;96991.91;4932355;29;20169;-94
2022/05/05 04:32:44;;;;;;;1.40;1.30;;;;;;;15.66;51.48;97055.06;4921052;29;20198;-94
2022/05/05 04:35:23;;;;;;;1.40;1.30;;;;;;;17.29;51.73;97278.69;4951554;29;20171;-94
2022/05/05 04:37:54;;;;;;;1.50;1.40;;;;;;;15.94;51.53;97027.63;4915277;29;20237;-94
2022/05/05 04:40:35;;;;;;;1.20;1.10;;;;;;;14.46;51.78;96791.50;4917706;29;20192;-94
2022/05/05 04:43:02;;;;;;;1.40;1.30;;;;;;;14.27;51.16;96731.66;4949002;29;20172;-95
2022/05/05 04:45:43;;;;;;;1.60;1.40;;;;;;;14.68;51.87;96790.00;4922752;29;20191;-94
2022/05/05 04:48:24;;;;;;;1.47;1.37;;;;;;;15.98;51.55;97021.88;4929085;29;20172;-94
2022/05/05 04:53:36;;;;;;;1.33;1.30;;;;;;;15.91;51.09;97024.09;5028087;23;20208;-94
2022/05/05 04:56:18;;;;;;;1.40;1.30;;;;;;;15.99;51.40;97031.22;4927372;29;20217;-94
2022/05/05 04:58:46;;;;;;;1.50;1.40;;;;;;;14.33;51.39;96734.47;4910549;29;20250;-95
2022/05/05 05:01:29;;;;;;;2.47;2.27;;;;;;;14.40;51.63;96813.97;4913849;29;20186;-93
2022/05/05 05:03:58;;;;;;;3.73;3.43;;;;;;;16.05;52.61;97040.75;4911586;29;20253;-94
2022/05/05 05:06:27;;;;;;;3.60;3.30;;;;;;;16.02;52.71;97036.41;4897236;29;20222;-93
2022/05/05 05:08:55;;;;;;;3.43;2.93;;;;;;;16.00;52.20;97045.63;4896280;29;20179;-94
2022/05/05 05:22:27;;;;;;;3.20;2.90;;;;;;;16.21;51.98;97071.91;5105194;23;20205;-93
2022/05/05 05:24:53;;;;;;;6.17;3.27;;;;;;;16.10;52.25;97103.50;4936733;29;20197;-95
2022/05/05 05:30:10;;;;;;;4.13;2.50;;;;;;;17.51;51.10;97283.03;5106423;23;20189;-94
2022/05/05 05:32:50;;;;;;;2.40;2.20;;;;;;;18.05;51.93;97459.00;4910461;29;20177;-95
2022/05/05 05:35:30;;;;;;;2.47;2.27;;;;;;;15.91;51.78;97027.50;4886212;29;20210;-96
2022/05/05 05:37:58;;;;;;;2.23;2.03;;;;;;;16.18;51.60;97113.97;4876372;29;20220;-94
2022/05/05 05:40:39;;;;;;;2.23;2.03;;;;;;;15.63;51.87;97039.75;4898811;29;20182;-95
2022/05/05 05:43:06;;;;;;;2.07;1.97;;;;;;;18.46;52.11;97458.19;4936861;23;20222;-91
2022/05/05 05:45:43;;;;;;;2.73;2.53;;;;;;;16.00;51.96;97049.81;4967216;23;20214;-94
2022/05/05 05:48:13;;;;;;;6.70;2.70;;;;;;;13.43;51.56;96654.50;4892119;29;20207;-93
2022/05/05 05:50:55;;;;;;;7.23;2.43;;;;;;;12.48;51.69;96452.41;4937235;23;20227;-92
2022/05/05 05:53:37;;;;;;;3.60;2.43;;;;;;;13.89;51.36;96682.72;4903537;29;20223;-92
2022/05/05 06:17:08;;;;;;;2.83;2.57;;;;;;;16.24;51.13;97076.22;1249154;27;20222;-95
2022/05/05 06:19:36;;;;;;;2.50;2.30;;;;;;;17.31;50.83;97258.44;4904825;29;20174;-94
2022/05/05 06:22:06;;;;;;;2.33;2.13;;;;;;;14.75;51.80;96816.41;4882442;29;20217;-93
2022/05/05 06:24:47;;;;;;;2.70;2.47;;;;;;;15.59;51.50;96959.38;4883790;24;20218;-95
2022/05/05 06:27:17;;;;;;;2.37;2.10;;;;;;;16.51;51.94;97114.59;4873093;29;20183;-93
2022/05/05 06:29:44;;;;;;;3.70;2.50;;;;;;;18.68;52.22;97549.00;4872074;29;20179;-94
2022/05/05 06:32:11;;;;;;;3.83;3.20;;;;;;;17.07;51.89;97211.72;4871918;29;20410;-95
2022/05/05 06:34:37;;;;;;;4.97;3.47;;;;;;;15.81;51.65;96978.91;4887201;29;20222;-94
2022/05/05 06:37:05;;;;;;;3.03;2.70;;;;;;;17.45;52.29;97272.63;4888192;29;20242;-94
2022/05/05 06:39:32;;;;;;;3.20;2.80;;;;;;;18.15;51.39;97450.94;4902554;29;20215;-94
2022/05/05 06:42:00;;;;;;;3.10;2.63;;;;;;;16.34;51.48;97086.81;4872107;29;20195;-92
2022/05/05 06:44:27;;;;;;;3.00;2.70;;;;;;;16.85;51.16;97204.91;4887691;29;20227;-95
2022/05/05 06:46:55;;;;;;;3.17;2.57;;;;;;;17.04;51.44;97194.69;4887157;29;20183;-93
2022/05/05 06:49:22;;;;;;;3.60;3.27;;;;;;;17.13;51.38;97267.81;4887106;29;20191;-94
2022/05/05 06:51:49;;;;;;;2.50;2.30;;;;;;;16.52;51.33;97146.78;4867253;29;20183;-94
2022/05/05 06:54:19;;;;;;;3.37;3.07;;;;;;;17.84;51.59;97346.25;4873665;29;20227;-94
2022/05/05 06:56:59;;;;;;;3.00;2.80;;;;;;;13.72;50.92;96669.34;4876262;29;20246;-95
2022/05/05 06:59:26;;;;;;;2.60;2.40;;;;;;;16.94;51.30;97219.63;4849519;29;20205;-92
2022/05/05 07:01:56;;;;;;;3.00;2.70;;;;;;;17.76;51.84;97341.66;4901629;29;20196;-93
2022/05/05 07:07:13;;;;;;;2.40;2.20;;;;;;;16.31;50.26;97139.94;4887291;29;20259;-94
2022/05/05 07:12:43;;;;;;;2.60;2.40;;;;;;;16.07;50.95;97105.91;4889898;29;20195;-92
2022/05/05 07:15:12;;;;;;;3.60;2.80;;;;;;;19.04;50.99;97533.50;4874553;29;20215;-94
2022/05/05 07:17:39;;;;;;;2.70;2.50;;;;;;;17.72;51.25;97378.81;4876318;29;20187;-94
2022/05/05 07:20:06;;;;;;;3.10;2.70;;;;;;;16.38;51.05;97115.72;4860160;29;20212;-93
2022/05/05 07:22:33;;;;;;;5.60;3.23;;;;;;;15.34;51.26;96916.03;4875431;29;20216;-93
2022/05/05 07:25:00;;;;;;;3.90;3.03;;;;;;;15.10;51.23;96855.91;4873468;29;20211;-94
2022/05/05 07:27:27;;;;;;;4.53;2.97;;;;;;;17.43;51.38;97274.19;4863799;29;20195;-94
2022/05/05 07:29:54;;;;;;;4.17;2.73;;;;;;;14.51;51.62;96822.91;4844198;29;20205;-92
2022/05/05 07:32:21;;;;;;;3.37;2.80;;;;;;;13.50;51.59;96583.31;4847797;29;20184;-93
2022/05/05 07:34:48;;;;;;;2.83;2.60;;;;;;;16.42;51.34;97110.84;4835285;29;20235;-94
2022/05/05 07:37:15;;;;;;;3.17;2.50;;;;;;;13.86;51.09;96644.72;4866455;29;20199;-93
2022/05/05 07:39:43;;;;;;;4.13;2.87;;;;;;;16.28;51.18;97075.53;4860105;29;20252;-93
2022/05/05 07:42:12;;;;;;;4.50;3.00;;;;;;;15.67;51.28;96959.72;4853591;29;20181;-93
2022/05/05 07:44:39;;;;;;;3.40;2.90;;;;;;;15.71;51.89;97042.63;4848218;29;20200;-93
2022/05/05 07:47:06;;;;;;;4.30;2.97;;;;;;;19.92;52.34;97757.97;4851060;29;20229;-93
2022/05/05 07:49:33;;;;;;;2.97;2.67;;;;;;;16.52;52.44;97142.53;4847626;29;20220;-93
2022/05/05 07:52:00;;;;;;;3.13;2.80;;;;;;;19.77;52.14;97697.81;4851518;29;20365;-92
2022/05/05 07:54:38;;;;;;;2.70;2.50;;;;;;;15.95;51.48;97013.28;4862780;29;20220;-93
2022/05/05 07:57:07;;;;;;;2.97;2.60;;;;;;;19.33;51.25;97606.88;4846544;29;20207;-93
2022/05/05 07:59:33;;;;;;;3.10;2.80;;;;;;;15.06;52.12;96955.22;4852905;29;20226;-94
2022/05/05 08:02:01;;;;;;;6.17;2.80;;;;;;;17.42;51.33;97275.88;4859883;29;20184;-93
2022/05/05 08:04:31;;;;;;;3.27;2.70;;;;;;;16.43;51.35;97130.34;4850992;29;20227;-93
2022/05/05 08:06:58;;;;;;;5.20;2.80;;;;;;;15.24;51.28;96928.22;4849014;29;20203;-94
2022/05/05 08:09:25;;;;;;;6.30;2.50;;;;;;;16.72;51.28;97178.94;4857484;29;20214;-93
2022/05/05 08:12:12;;;;;;;3.53;2.43;;;;;;;15.02;51.46;96940.72;4866577;29;20196;-92
2022/05/05 08:14:39;;;;;;;5.43;2.80;;;;;;;16.40;50.53;97116.63;4865561;29;20219;-94
2022/05/05 08:17:06;;;;;;;5.67;2.90;;;;;;;14.09;51.14;96708.06;4863130;29;20234;-94
2022/05/05 08:19:39;;;;;;;3.50;2.77;;;;;;;16.04;51.02;97087.16;4865334;29;20200;-93
2022/05/05 08:22:06;;;;;;;2.80;2.50;;;;;;;19.56;51.25;97674.03;4865295;29;20196;-93
2022/05/05 08:30:04;;;;;;;2.87;2.30;;;;;;;14.89;50.77;96893.75;4879139;29;20187;-93
2022/05/05 08:32:31;;;;;;;2.93;2.57;;;;;;;16.96;50.95;97236.66;4897673;29;20212;-93
2022/05/05 08:34:58;;;;;;;2.50;2.30;;;;;;;17.19;50.39;97304.50;4883047;29;20214;-94
2022/05/05 08:37:24;;;;;;;3.70;2.63;;;;;;;17.87;51.13;97424.31;4867205;29;20187;-94
2022/05/05 08:39:51;;;;;;;2.60;2.40;;;;;;;18.91;51.07;97612.78;4886844;29;20199;-93
2022/05/05 08:42:19;;;;;;;3.83;2.50;;;;;;;17.08;50.84;97300.63;4884241;29;20292;-93
2022/05/05 08:44:46;;;;;;;2.97;2.50;;;;;;;17.43;50.69;97385.94;4868972;29;20220;-93
2022/05/05 08:47:13;;;;;;;2.87;2.60;;;;;;;16.26;50.92;97105.91;4886835;29;20206;-94
2022/05/05 08:49:39;;;;;;;3.70;2.30;;;;;;;16.12;51.15;97113.72;4884731;29;20184;-93
2022/05/05 08:52:08;;;;;;;3.13;2.47;;;;;;;16.38;50.90;97146.16;4886920;29;20186;-93
2022/05/05 08:54:35;;;;;;;2.47;2.27;;;;;;;16.15;51.46;97114.72;4886540;29;20223;-92
2022/05/05 08:57:02;;;;;;;2.80;2.50;;;;;;;14.97;50.82;96925.31;4864427;29;20232;-93
2022/05/05 08:59:28;;;;;;;3.00;2.53;;;;;;;16.76;51.18;97219.72;4870803;29;20183;-92
2022/05/05 09:01:55;;;;;;;3.63;2.53;;;;;;;15.17;51.37;96934.69;4880371;29;20212;-93
2022/05/05 09:04:24;;;;;;;2.53;2.30;;;;;;;16.29;51.18;97154.19;4880629;29;20203;-93
2022/05/05 09:06:52;;;;;;;3.10;2.40;;;;;;;15.88;51.19;97055.25;4887738;29;20183;-93
2022/05/05 09:09:29;;;;;;;2.40;2.20;;;;;;;18.62;51.06;97567.44;4872925;29;20200;-94
2022/05/05 09:12:18;;;;;;;2.67;2.40;;;;;;;19.80;51.45;97731.97;4872396;29;20189;-94
2022/05/05 09:14:46;;;;;;;2.93;2.73;;;;;;;19.78;51.84;97731.03;4887264;29;20219;-93
2022/05/05 09:17:29;;;;;;;2.97;2.20;;;;;;;18.40;50.87;97535.94;4887321;29;20199;-94
2022/05/05 09:19:56;;;;;;;2.40;2.20;;;;;;;16.14;51.25;97180.56;4887696;29;20195;-93
2022/05/05 09:22:25;;;;;;;5.10;2.30;;;;;;;17.42;51.28;97323.25;4886678;29;20239;-93
2022/05/05 09:24:53;;;;;;;3.03;2.37;;;;;;;18.33;51.65;97517.00;4875466;29;20261;-93
2022/05/05 09:27:28;;;;;;;2.40;2.20;;;;;;;17.86;51.50;97460.72;4867918;29;20200;-93
2022/05/05 09:29:54;;;;;;;2.63;2.43;;;;;;;19.74;51.42;97736.84;4868369;29;20191;-94
2022/05/05 09:32:29;;;;;;;2.40;2.20;;;;;;;17.03;51.42;97330.06;4881770;29;20259;-93
2022/05/05 09:35:01;;;;;;;2.60;2.10;;;;;;;18.47;51.39;97551.53;4866122;29;20239;-93
2022/05/05 09:37:29;;;;;;;2.73;2.40;;;;;;;18.00;51.97;97464.72;4867234;29;20179;-94
2022/05/05 09:39:57;;;;;;;2.30;2.10;;;;;;;16.19;51.36;97136.00;4870477;29;20187;-93
2022/05/05 09:42:36;;;;;;;3.33;2.50;;;;;;;19.74;51.47;97718.97;4867538;29;20180;-93
2022/05/05 09:45:29;;;;;;;2.60;2.40;;;;;;;19.74;51.38;97723.22;4868007;29;20211;-93
2022/05/05 09:48:03;;;;;;;2.70;2.20;;;;;;;16.39;51.22;97155.47;4867848;29;20213;-94
2022/05/05 09:50:34;;;;;;;2.30;2.10;;;;;;;14.36;51.35;96843.28;4866511;29;20303;-93
2022/05/05 09:58:37;;;;;;;3.37;2.37;;;;;;;14.42;50.36;96830.91;4864243;29;20228;-93
2022/05/05 10:01:21;;;;;;;3.03;2.33;;;;;;;16.38;50.66;97214.63;4875779;29;20195;-93
2022/05/05 10:04:05;;;;;;;2.83;2.37;;;;;;;18.33;51.13;97528.84;4843624;29;20227;-92
2022/05/05 10:06:36;;;;;;;6.63;2.60;;;;;;;19.09;51.16;97654.28;4853147;29;20271;-92
2022/05/05 10:09:10;;;;;;;3.27;2.33;;;;;;;18.73;51.15;97568.75;4860204;29;20218;-93
2022/05/05 10:11:37;;;;;;;4.47;2.60;;;;;;;17.34;50.92;97324.59;4842962;29;20180;-93
2022/05/05 10:14:05;;;;;;;4.30;2.33;;;;;;;18.54;51.40;97507.72;4852424;29;20211;-93
2022/05/05 10:16:32;;;;;;;5.87;2.53;;;;;;;14.88;51.15;96934.16;4843926;29;20245;-93
2022/05/05 10:18:59;;;;;;;5.50;2.57;;;;;;;17.07;51.41;97260.81;4867183;29;20192;-92
2022/05/05 10:21:47;;;;;;;5.77;2.33;;;;;;;19.03;52.12;97595.44;4867167;29;20179;-92
2022/05/05 10:24:19;;;;;;;5.00;2.27;;;;;;;19.73;51.56;97704.50;4869932;29;20207;-93
2022/05/05 10:26:50;;;;;;;11.43;2.77;;;;;;;17.96;51.97;97437.41;4880050;29;20200;-93
2022/05/05 10:29:36;;;;;;;3.63;2.47;;;;;;;19.71;51.83;97711.22;4871249;29;20195;-94
2022/05/05 10:32:07;;;;;;;3.73;2.60;;;;;;;19.70;51.88;97706.94;4849397;29;20188;-89
2022/05/05 10:34:34;;;;;;;2.80;2.50;;;;;;;13.65;51.64;96671.50;4863577;29;20297;-92
2022/05/05 10:37:10;;;;;;;4.77;3.10;;;;;;;16.04;52.23;97138.72;4869030;29;20209;-93
2022/05/05 10:39:50;;;;;;;5.83;2.53;;;;;;;13.91;51.95;96731.63;4869917;29;20222;-91
2022/05/05 10:42:24;;;;;;;4.80;2.80;;;;;;;19.76;51.83;97698.66;4868156;29;20234;-93
2022/05/05 10:45:09;;;;;;;4.67;2.90;;;;;;;19.77;51.98;97697.81;4848571;29;20227;-90
2022/05/05 10:47:52;;;;;;;3.97;2.57;;;;;;;19.76;51.89;97701.19;4872950;29;20272;-92
2022/05/05 10:50:37;;;;;;;5.07;2.53;;;;;;;19.76;51.86;97701.19;4882899;29;20196;-93
2022/05/05 10:53:04;;;;;;;4.73;2.47;;;;;;;17.95;51.77;97416.19;4838721;29;20180;-95
2022/05/05 10:55:34;;;;;;;5.27;2.80;;;;;;;19.76;51.74;97696.97;4868184;29;20235;-92
2022/05/05 10:58:56;;;;;;;5.70;2.57;;;;;;;19.75;51.80;97689.28;4842045;29;20184;-93
2022/05/05 11:01:26;;;;;;;3.63;2.90;;;;;;;16.20;51.50;97077.75;4882232;29;20184;-93
2022/05/05 11:04:15;;;;;;;3.63;2.33;;;;;;;19.76;51.90;97689.31;4865795;29;20195;-93
2022/05/05 11:06:50;;;;;;;5.93;2.30;;;;;;;13.81;50.84;96704.22;4880858;29;20199;-94
2022/05/05 11:09:34;;;;;;;3.87;2.30;;;;;;;15.92;52.41;97087.50;4853786;29;20176;-94
2022/05/05 11:12:19;;;;;;;3.00;2.20;;;;;;;19.77;51.78;97702.94;4868559;29;20192;-94
2022/05/05 11:23:45;;;;;;;2.77;2.27;;;;;;;15.53;52.06;96975.97;4861827;29;20195;-95
2022/05/05 11:26:35;;;;;;;2.87;2.57;;;;;;;15.28;51.90;96937.69;4882832;29;20206;-95
2022/05/05 11:29:02;;;;;;;4.03;2.60;;;;;;;15.48;52.25;97010.38;4873056;29;20227;-95
2022/05/05 11:31:30;;;;;;;3.40;2.57;;;;;;;19.74;52.21;97715.56;4854965;29;20192;-94
2022/05/05 11:33:58;;;;;;;4.40;2.60;;;;;;;15.14;52.27;96938.72;4889485;29;20274;-94
2022/05/05 11:36:30;;;;;;;4.63;2.50;;;;;;;19.73;52.11;97696.84;4875196;29;20235;-94
2022/05/05 11:38:57;;;;;;;3.73;2.50;;;;;;;15.33;51.68;96958.97;4871852;29;20175;-93
2022/05/05 11:41:38;;;;;;;2.73;2.50;;;;;;;15.99;52.09;97103.84;4888102;29;20203;-94
2022/05/05 11:44:14;;;;;;;2.93;2.60;;;;;;;16.19;52.37;97147.00;4887117;29;20217;-94
2022/05/05 11:46:41;;;;;;;2.93;2.47;;;;;;;14.85;51.24;96861.53;4865548;29;20189;-94
2022/05/05 11:49:09;;;;;;;4.30;2.50;;;;;;;16.15;52.13;97155.28;4871516;29;20183;-94
2022/05/05 13:07:24;;;;;;;3.20;2.70;;;;;;;15.90;51.82;96969.16;1461752;27;20273;-94
2022/05/05 13:09:51;;;;;;;3.10;2.60;;;;;;;14.53;51.98;96722.72;4870898;29;20210;-93
2022/05/05 13:12:19;;;;;;;3.53;2.40;;;;;;;16.22;51.89;97032.19;4870929;29;20209;-94
2022/05/05 13:14:46;;;;;;;2.93;2.47;;;;;;;16.92;51.45;97125.66;4866339;29;20218;-93
2022/05/05 13:17:13;;;;;;;2.70;2.37;;;;;;;17.16;52.05;97196.84;4851714;29;20207;-94
2022/05/05 13:19:42;;;;;;;5.50;2.57;;;;;;;16.16;52.32;96984.63;4868370;29;20188;-94
2022/05/05 13:30:46;;;;;;;4.13;3.27;;;;;;;16.85;53.36;97176.97;4921668;29;20262;-94
2022/05/05 13:33:13;;;;;;;5.17;3.53;;;;;;;16.81;53.51;97109.13;4892116;29;20190;-93
2022/05/05 13:35:40;;;;;;;5.17;3.73;;;;;;;18.31;53.60;97349.81;4886525;29;20222;-95
2022/05/05 13:38:23;;;;;;;3.87;3.13;;;;;;;15.75;54.12;96898.44;4897950;29;20171;-94
2022/05/05 13:41:03;;;;;;;3.87;3.47;;;;;;;14.02;53.48;96596.59;4887936;29;20223;-95
2022/05/05 13:46:20;;;;;;;5.23;3.63;;;;;;;18.55;53.45;97372.03;4977948;23;20211;-94
2022/05/05 14:18:42;;;;;;;4.00;3.70;;;;;;;19.09;53.40;97460.69;1210363;23;20233;-93
2022/05/05 14:21:09;;;;;;;4.50;4.10;;;;;;;17.59;53.28;97226.63;4996889;23;20223;-92
2022/05/05 14:23:36;;;;;;;4.07;3.77;;;;;;;14.29;53.38;96633.19;4873490;29;20204;-94
2022/05/05 14:39:39;;;;;;;5.37;4.00;;;;;;;13.68;54.00;96566.47;4954715;23;20201;-95
2022/05/05 14:42:51;;;;;;;5.20;3.27;;;;;;;19.02;53.49;97435.81;4934611;29;20203;-94
2022/05/05 14:45:57;;;;;;;4.67;3.50;;;;;;;17.13;53.44;97102.78;4916604;29;20230;-94
2022/05/05 14:51:15;;;;;;;5.30;3.80;;;;;;;15.83;53.39;96919.88;5077524;23;20232;-94
2022/05/05 14:56:41;;;;;;;7.93;3.80;;;;;;;17.98;53.63;97340.06;5002630;23;20217;-93
2022/05/05 14:59:08;;;;;;;4.93;3.80;;;;;;;16.25;53.54;97012.03;4924244;29;20214;-94
2022/05/05 15:06:51;;;;;;;10.37;3.60;;;;;;;17.36;53.92;97218.88;5005681;23;20241;-94
2022/05/05 15:39:00;;;;;;;3.70;3.00;;;;;;;16.37;53.52;97037.88;3234866;23;20565;-95
2022/05/05 15:52:02;;;;;;;3.27;2.97;;;;;;;16.43;53.44;97022.94;5112582;23;20243;-93
2022/05/05 15:54:29;;;;;;;3.43;3.13;;;;;;;16.49;53.00;97027.44;4910065;29;20194;-94
2022/05/05 15:59:38;;;;;;;4.00;3.13;;;;;;;16.44;53.36;97009.50;5171814;23;20221;-95
2022/05/05 16:04:43;;;;;;;5.07;3.23;;;;;;;13.48;52.98;96567.25;5090623;23;20213;-96
2022/05/05 16:07:10;;;;;;;3.80;3.30;;;;;;;13.56;54.21;96517.13;4906978;29;20204;-95
2022/05/05 16:09:37;;;;;;;5.17;3.00;;;;;;;16.81;53.27;97095.59;4875945;29;20207;-94
2022/05/05 16:12:05;;;;;;;3.57;3.27;;;;;;;16.12;53.33;96938.81;4875652;29;20273;-94
2022/05/05 16:19:55;;;;;;;5.03;3.07;;;;;;;14.41;52.74;96653.94;5071908;23;20241;-93
2022/05/05 16:22:47;;;;;;;3.10;2.50;;;;;;;15.86;52.76;96974.88;4912570;29;20190;-94
2022/05/05 16:30:58;;;;;;;3.13;2.93;;;;;;;16.77;53.08;97107.28;4961741;23;20222;-94
2022/05/05 17:51:53;;;;;;;3.20;2.90;;;;;;;18.67;53.58;97484.50;4933300;29;20213;-92
2022/05/05 18:10:46;;;;;;;4.13;2.90;;;;;;;19.98;53.16;97669.75;5254126;23;20209;-94
2022/05/05 18:14:08;;;;;;;3.03;2.60;;;;;;;16.46;53.07;97091.56;4917093;29;20166;-94
2022/05/05 18:17:38;;;;;;;2.77;2.50;;;;;;;13.00;52.59;96531.38;4881970;29;20183;-95
2022/05/05 18:20:41;;;;;;;2.43;2.23;;;;;;;19.94;53.21;97669.63;4873595;29;20199;-95
2022/05/05 18:23:51;;;;;;;2.90;2.60;;;;;;;15.50;53.19;96920.13;4873836;29;20188;-95
2022/05/05 18:26:58;;;;;;;2.90;2.70;;;;;;;12.79;52.92;96505.97;4854288;29;20167;-95
2022/05/05 18:30:07;;;;;;;2.60;2.40;;;;;;;15.68;53.27;96939.50;4874263;29;20167;-95
2022/05/05 18:33:12;;;;;;;2.67;2.33;;;;;;;19.93;53.40;97674.66;4863093;29;20203;-95
2022/05/05 18:35:55;;;;;;;2.67;2.47;;;;;;;13.35;53.33;96579.25;4860073;29;20218;-94
2022/05/05 18:38:37;;;;;;;2.87;2.67;;;;;;;19.93;53.17;97675.50;4869941;29;20181;-94
2022/05/05 18:41:46;;;;;;;2.80;2.60;;;;;;;19.94;53.25;97678.94;4865612;29;20175;-95
2022/05/05 18:48:38;;;;;;;2.93;2.60;;;;;;;18.69;53.77;97520.19;4922555;29;20174;-95
2022/05/05 18:51:54;;;;;;;3.63;2.73;;;;;;;19.95;53.11;97683.22;4902055;29;20196;-94
2022/05/05 18:55:14;;;;;;;2.80;2.60;;;;;;;14.05;52.98;96695.25;4943633;29;20166;-95